EZY746 EGPH-EGKK
Flight info
| Callsign | EZY746 |
|---|---|
| Flight time | 1h 7m |
| Altitude | 37000 |
| Route | GOSAM P600 FENIK L612 NAVSO DCT ADZOP DCT EGTOC DCT KEPAD L151 DISIT |
| Aircraft | A320/M-SDE3FGHIRWY/LB1 |
Departure
| Time | 2026-05-04 18:09 |
|---|---|
| Airport | Edinburgh Airport (EGPH) |
Arrival
| Time | 2026-05-04 19:16 |
|---|---|
| Airport | London Gatwick Airport (EGKK) |
| Time | Latitude | Longitude | Altitude | Speed | Heading |
|---|---|---|---|---|---|
| 2026-05-04 17:31 | 55.94834 | -3.35806 | 113 ft | 0 kts | 208° |
| 2026-05-04 17:33 | 55.94810 | -3.35749 | 113 ft | 0 kts | 208° |
| 2026-05-04 17:59 | 55.94829 | -3.35732 | 116 ft | 4 kts | 208° |
| 2026-05-04 18:00 | 55.94848 | -3.35713 | 116 ft | 4 kts | 210° |
| 2026-05-04 18:00 | 55.94866 | -3.35684 | 116 ft | 4 kts | 253° |
| 2026-05-04 18:00 | 55.94865 | -3.35641 | 116 ft | 3 kts | 297° |
| 2026-05-04 18:00 | 55.94864 | -3.35635 | 116 ft | 0 kts | 298° |
| 2026-05-04 18:02 | 55.94879 | -3.35686 | 114 ft | 10 kts | 298° |
| 2026-05-04 18:03 | 55.94925 | -3.35828 | 112 ft | 13 kts | 309° |
| 2026-05-04 18:03 | 55.95010 | -3.35833 | 116 ft | 13 kts | 28° |
| 2026-05-04 18:03 | 55.95084 | -3.35785 | 116 ft | 10 kts | 347° |
| 2026-05-04 18:03 | 55.95125 | -3.35883 | 114 ft | 12 kts | 300° |
| 2026-05-04 18:04 | 55.95190 | -3.35970 | 115 ft | 12 kts | 328° |
| 2026-05-04 18:04 | 55.95250 | -3.35936 | 114 ft | 10 kts | 56° |
| 2026-05-04 18:04 | 55.95349 | -3.35646 | 113 ft | 17 kts | 58° |
| 2026-05-04 18:05 | 55.95401 | -3.35491 | 114 ft | 10 kts | 59° |
| 2026-05-04 18:05 | 55.95441 | -3.35403 | 115 ft | 8 kts | 24° |
| 2026-05-04 18:05 | 55.95491 | -3.35432 | 114 ft | 7 kts | 329° |
| 2026-05-04 18:05 | 55.95499 | -3.35440 | 116 ft | 0 kts | 329° |
| 2026-05-04 18:06 | 55.95499 | -3.35441 | 116 ft | 0 kts | 329° |
| 2026-05-04 18:06 | 55.95501 | -3.35443 | 115 ft | 2 kts | 329° |
| 2026-05-04 18:07 | 55.95539 | -3.35483 | 113 ft | 9 kts | 329° |
| 2026-05-04 18:07 | 55.95573 | -3.35529 | 112 ft | 4 kts | 300° |
| 2026-05-04 18:07 | 55.95570 | -3.35569 | 112 ft | 3 kts | 250° |
| 2026-05-04 18:07 | 55.95561 | -3.35595 | 113 ft | 2 kts | 238° |
| 2026-05-04 18:08 | 55.95555 | -3.35614 | 113 ft | 2 kts | 238° |
| 2026-05-04 18:08 | 55.95487 | -3.35813 | 112 ft | 53 kts | 239° |
| 2026-05-04 18:08 | 55.95170 | -3.36745 | 115 ft | 119 kts | 239° |
| 2026-05-04 18:08 | 55.94657 | -3.38272 | 273 ft | 155 kts | 239° |
| 2026-05-04 18:09 | 55.93527 | -3.41573 | 1628 ft | 165 kts | 240° |
| 2026-05-04 18:09 | 55.92176 | -3.45452 | 2419 ft | 208 kts | 240° |
| 2026-05-04 18:10 | 55.91381 | -3.47769 | 2937 ft | 230 kts | 240° |
| 2026-05-04 18:10 | 55.90570 | -3.50372 | 3542 ft | 248 kts | 251° |
| 2026-05-04 18:10 | 55.90195 | -3.53398 | 4457 ft | 252 kts | 261° |
| 2026-05-04 18:10 | 55.89887 | -3.56495 | 5414 ft | 255 kts | 260° |
| 2026-05-04 18:11 | 55.89574 | -3.59622 | 6333 ft | 259 kts | 260° |
| 2026-05-04 18:11 | 55.89255 | -3.62807 | 7254 ft | 262 kts | 260° |
| 2026-05-04 18:11 | 55.88932 | -3.66032 | 8140 ft | 266 kts | 261° |
| 2026-05-04 18:11 | 55.88602 | -3.69309 | 9018 ft | 271 kts | 261° |
| 2026-05-04 18:12 | 55.88266 | -3.72639 | 9853 ft | 275 kts | 261° |
| 2026-05-04 18:12 | 55.87922 | -3.76063 | 10417 ft | 291 kts | 261° |
| 2026-05-04 18:12 | 55.87552 | -3.79755 | 10711 ft | 314 kts | 261° |
| 2026-05-04 18:12 | 55.87161 | -3.83705 | 11141 ft | 330 kts | 262° |
| 2026-05-04 18:13 | 55.86762 | -3.87769 | 11841 ft | 336 kts | 262° |
| 2026-05-04 18:13 | 55.86353 | -3.91901 | 12624 ft | 339 kts | 262° |
| 2026-05-04 18:13 | 55.85516 | -4.00250 | 14107 ft | 346 kts | 262° |
| 2026-05-04 18:14 | 55.85088 | -4.04481 | 14823 ft | 349 kts | 262° |
| 2026-05-04 18:14 | 55.84635 | -4.08750 | 15503 ft | 353 kts | 258° |
| 2026-05-04 18:14 | 55.83692 | -4.12765 | 16129 ft | 362 kts | 240° |
| 2026-05-04 18:15 | 55.79872 | -4.18845 | 17462 ft | 375 kts | 219° |
| 2026-05-04 18:15 | 55.75402 | -4.23702 | 18818 ft | 385 kts | 205° |
| 2026-05-04 18:15 | 55.72790 | -4.24945 | 19426 ft | 394 kts | 192° |
| 2026-05-04 18:16 | 55.70029 | -4.25147 | 20013 ft | 404 kts | 179° |
| 2026-05-04 18:16 | 55.67235 | -4.24221 | 20581 ft | 413 kts | 166° |
| 2026-05-04 18:16 | 55.64542 | -4.22330 | 21126 ft | 420 kts | 157° |
| 2026-05-04 18:17 | 55.59380 | -4.17264 | 22156 ft | 428 kts | 154° |
| 2026-05-04 18:17 | 55.56767 | -4.14700 | 22668 ft | 431 kts | 154° |
| 2026-05-04 18:17 | 55.51486 | -4.09552 | 23587 ft | 436 kts | 154° |
| 2026-05-04 18:18 | 55.48823 | -4.06957 | 24040 ft | 439 kts | 154° |
| 2026-05-04 18:18 | 55.46147 | -4.04352 | 24469 ft | 441 kts | 154° |
| 2026-05-04 18:18 | 55.43449 | -4.01738 | 24883 ft | 443 kts | 154° |
| 2026-05-04 18:18 | 55.40739 | -3.99118 | 25283 ft | 446 kts | 154° |
| 2026-05-04 18:19 | 55.35271 | -3.93843 | 26051 ft | 450 kts | 154° |
| 2026-05-04 18:19 | 55.32524 | -3.91195 | 26415 ft | 452 kts | 154° |
| 2026-05-04 18:19 | 55.29757 | -3.88531 | 26786 ft | 454 kts | 154° |
| 2026-05-04 18:20 | 55.26977 | -3.85863 | 27130 ft | 456 kts | 154° |
| 2026-05-04 18:20 | 55.24191 | -3.83194 | 27461 ft | 458 kts | 154° |
| 2026-05-04 18:20 | 55.21315 | -3.80816 | 27777 ft | 457 kts | 162° |
| 2026-05-04 18:20 | 55.18305 | -3.79008 | 28091 ft | 458 kts | 164° |
| 2026-05-04 18:21 | 55.15277 | -3.77233 | 28388 ft | 460 kts | 164° |
| 2026-05-04 18:21 | 55.12231 | -3.75449 | 28674 ft | 462 kts | 163° |
| 2026-05-04 18:21 | 55.09174 | -3.73662 | 28951 ft | 464 kts | 163° |
| 2026-05-04 18:21 | 55.06149 | -3.71897 | 29199 ft | 465 kts | 163° |
| 2026-05-04 18:22 | 55.03074 | -3.70106 | 29460 ft | 467 kts | 163° |
| 2026-05-04 18:22 | 54.99986 | -3.68313 | 29708 ft | 468 kts | 163° |
| 2026-05-04 18:22 | 54.96889 | -3.66521 | 29935 ft | 470 kts | 163° |
| 2026-05-04 18:22 | 54.93783 | -3.64723 | 30209 ft | 470 kts | 163° |
| 2026-05-04 18:23 | 54.90685 | -3.62926 | 30517 ft | 469 kts | 162° |
| 2026-05-04 18:23 | 54.87587 | -3.61130 | 30819 ft | 468 kts | 162° |
| 2026-05-04 18:23 | 54.84497 | -3.59346 | 31107 ft | 468 kts | 162° |
| 2026-05-04 18:23 | 54.81409 | -3.57567 | 31385 ft | 467 kts | 162° |
| 2026-05-04 18:24 | 54.78330 | -3.55799 | 31653 ft | 466 kts | 162° |
| 2026-05-04 18:24 | 54.75249 | -3.54034 | 31933 ft | 466 kts | 162° |
| 2026-05-04 18:24 | 54.72175 | -3.52276 | 32225 ft | 465 kts | 162° |
| 2026-05-04 18:24 | 54.69099 | -3.50521 | 32510 ft | 465 kts | 162° |
| 2026-05-04 18:25 | 54.66033 | -3.48766 | 32795 ft | 464 kts | 162° |
| 2026-05-04 18:25 | 54.62975 | -3.47012 | 33083 ft | 463 kts | 162° |
| 2026-05-04 18:25 | 54.59919 | -3.45264 | 33359 ft | 463 kts | 162° |
| 2026-05-04 18:25 | 54.56861 | -3.43522 | 33618 ft | 462 kts | 162° |
| 2026-05-04 18:26 | 54.53801 | -3.41787 | 33898 ft | 462 kts | 162° |
| 2026-05-04 18:26 | 54.50757 | -3.40065 | 34174 ft | 461 kts | 162° |
| 2026-05-04 18:26 | 54.47704 | -3.38340 | 34447 ft | 460 kts | 162° |
| 2026-05-04 18:26 | 54.44662 | -3.36625 | 34721 ft | 460 kts | 162° |
| 2026-05-04 18:27 | 54.41622 | -3.34917 | 34978 ft | 459 kts | 162° |
| 2026-05-04 18:27 | 54.38584 | -3.33209 | 35234 ft | 459 kts | 162° |
| 2026-05-04 18:27 | 54.35553 | -3.31503 | 35475 ft | 459 kts | 162° |
| 2026-05-04 18:27 | 54.32518 | -3.29793 | 35712 ft | 459 kts | 162° |
| 2026-05-04 18:28 | 54.29492 | -3.28089 | 35948 ft | 458 kts | 162° |
| 2026-05-04 18:28 | 54.26465 | -3.26391 | 36162 ft | 457 kts | 162° |
| 2026-05-04 18:28 | 54.23439 | -3.24697 | 36365 ft | 457 kts | 162° |
| 2026-05-04 18:28 | 54.20420 | -3.23012 | 36546 ft | 457 kts | 162° |
| 2026-05-04 18:29 | 54.17390 | -3.21324 | 36741 ft | 457 kts | 162° |
| 2026-05-04 18:29 | 54.14369 | -3.19641 | 36976 ft | 455 kts | 162° |
| 2026-05-04 18:29 | 54.08370 | -3.16316 | 37073 ft | 450 kts | 162° |
| 2026-05-04 18:30 | 53.99493 | -3.11409 | 37081 ft | 449 kts | 162° |
| 2026-05-04 18:31 | 53.93559 | -3.08136 | 37081 ft | 447 kts | 162° |
| 2026-05-04 18:31 | 53.87651 | -3.04883 | 37081 ft | 446 kts | 162° |
| 2026-05-04 18:32 | 53.82698 | -3.02168 | 37082 ft | 446 kts | 162° |
| 2026-05-04 18:32 | 53.76809 | -2.98961 | 37082 ft | 446 kts | 162° |
| 2026-05-04 18:33 | 53.70903 | -2.95749 | 37092 ft | 446 kts | 162° |
| 2026-05-04 18:33 | 53.64985 | -2.92533 | 37095 ft | 446 kts | 162° |
| 2026-05-04 18:34 | 53.59084 | -2.89333 | 37092 ft | 446 kts | 162° |
| 2026-05-04 18:34 | 53.53169 | -2.86133 | 37084 ft | 446 kts | 162° |
| 2026-05-04 18:35 | 53.47262 | -2.82952 | 37078 ft | 446 kts | 162° |
| 2026-05-04 18:35 | 53.41351 | -2.79788 | 37076 ft | 445 kts | 162° |
| 2026-05-04 18:36 | 53.35448 | -2.76631 | 37071 ft | 445 kts | 162° |
| 2026-05-04 18:36 | 53.29546 | -2.73471 | 37067 ft | 445 kts | 162° |
| 2026-05-04 18:37 | 53.23681 | -2.70343 | 37065 ft | 445 kts | 162° |
| 2026-05-04 18:37 | 53.17779 | -2.67217 | 37065 ft | 445 kts | 162° |
| 2026-05-04 18:38 | 53.11877 | -2.64102 | 37064 ft | 445 kts | 162° |
| 2026-05-04 18:38 | 53.06005 | -2.61004 | 37065 ft | 445 kts | 162° |
| 2026-05-04 18:39 | 53.00100 | -2.57899 | 37066 ft | 444 kts | 162° |
| 2026-05-04 18:39 | 52.94215 | -2.54810 | 37067 ft | 443 kts | 162° |
| 2026-05-04 18:40 | 52.88331 | -2.51729 | 37067 ft | 443 kts | 162° |
| 2026-05-04 18:40 | 52.82477 | -2.48602 | 37065 ft | 443 kts | 158° |
| 2026-05-04 18:41 | 52.77108 | -2.43641 | 37067 ft | 443 kts | 146° |
| 2026-05-04 18:41 | 52.71986 | -2.37983 | 36992 ft | 443 kts | 147° |
| 2026-05-04 18:41 | 52.69426 | -2.35161 | 36737 ft | 442 kts | 146° |
| 2026-05-04 18:42 | 52.66873 | -2.32345 | 36488 ft | 441 kts | 146° |
| 2026-05-04 18:42 | 52.64327 | -2.29541 | 36237 ft | 440 kts | 147° |
| 2026-05-04 18:42 | 52.61780 | -2.26744 | 35994 ft | 441 kts | 147° |
| 2026-05-04 18:42 | 52.59245 | -2.23968 | 35739 ft | 444 kts | 147° |
| 2026-05-04 18:43 | 52.56638 | -2.21114 | 35020 ft | 448 kts | 147° |
| 2026-05-04 18:43 | 52.54072 | -2.18312 | 34172 ft | 449 kts | 147° |
| 2026-05-04 18:43 | 52.51466 | -2.15472 | 33206 ft | 451 kts | 147° |
| 2026-05-04 18:43 | 52.48836 | -2.12610 | 32157 ft | 454 kts | 147° |
| 2026-05-04 18:44 | 52.46200 | -2.09741 | 31118 ft | 456 kts | 147° |
| 2026-05-04 18:44 | 52.44408 | -2.07796 | 30357 ft | 458 kts | 148° |
| 2026-05-04 18:44 | 52.40873 | -2.03967 | 28761 ft | 462 kts | 148° |
| 2026-05-04 18:44 | 52.38190 | -2.01064 | 27585 ft | 463 kts | 148° |
| 2026-05-04 18:45 | 52.35523 | -1.98181 | 26940 ft | 453 kts | 148° |
| 2026-05-04 18:45 | 52.32910 | -1.95357 | 26181 ft | 447 kts | 149° |
| 2026-05-04 18:45 | 52.30331 | -1.92572 | 25427 ft | 441 kts | 149° |
| 2026-05-04 18:45 | 52.27786 | -1.89835 | 24701 ft | 435 kts | 149° |
| 2026-05-04 18:46 | 52.25271 | -1.87135 | 23978 ft | 430 kts | 149° |
| 2026-05-04 18:46 | 52.22783 | -1.84468 | 23256 ft | 426 kts | 149° |
| 2026-05-04 18:46 | 52.20319 | -1.81826 | 22584 ft | 421 kts | 149° |
| 2026-05-04 18:46 | 52.17887 | -1.79226 | 21935 ft | 417 kts | 149° |
| 2026-05-04 18:47 | 52.15475 | -1.76656 | 21317 ft | 412 kts | 149° |
| 2026-05-04 18:47 | 52.13117 | -1.74147 | 20719 ft | 407 kts | 149° |
| 2026-05-04 18:47 | 52.10760 | -1.71638 | 20149 ft | 403 kts | 149° |
| 2026-05-04 18:47 | 52.08426 | -1.69151 | 19724 ft | 399 kts | 148° |
| 2026-05-04 18:48 | 52.06110 | -1.66686 | 19395 ft | 398 kts | 148° |
| 2026-05-04 18:48 | 52.03797 | -1.64232 | 19040 ft | 396 kts | 148° |
| 2026-05-04 18:48 | 52.01496 | -1.61797 | 18699 ft | 394 kts | 148° |
| 2026-05-04 18:48 | 51.99203 | -1.59370 | 18354 ft | 392 kts | 148° |
| 2026-05-04 18:49 | 51.96923 | -1.56952 | 18006 ft | 390 kts | 148° |
| 2026-05-04 18:49 | 51.94661 | -1.54553 | 17669 ft | 388 kts | 148° |
| 2026-05-04 18:49 | 51.92399 | -1.52155 | 17327 ft | 386 kts | 148° |
| 2026-05-04 18:49 | 51.90146 | -1.49776 | 16982 ft | 385 kts | 148° |
| 2026-05-04 18:50 | 51.87906 | -1.47420 | 16641 ft | 383 kts | 148° |
| 2026-05-04 18:50 | 51.85700 | -1.45105 | 16309 ft | 382 kts | 148° |
| 2026-05-04 18:50 | 51.83470 | -1.42775 | 15973 ft | 380 kts | 148° |
| 2026-05-04 18:50 | 51.81249 | -1.40460 | 15641 ft | 379 kts | 148° |
| 2026-05-04 18:51 | 51.79042 | -1.38156 | 15320 ft | 378 kts | 148° |
| 2026-05-04 18:51 | 51.76839 | -1.35849 | 14976 ft | 376 kts | 148° |
| 2026-05-04 18:51 | 51.74650 | -1.33554 | 14909 ft | 374 kts | 147° |
| 2026-05-04 18:51 | 51.72458 | -1.31254 | 15010 ft | 377 kts | 147° |
| 2026-05-04 18:52 | 51.70256 | -1.28948 | 15026 ft | 377 kts | 148° |
| 2026-05-04 18:52 | 51.68048 | -1.26646 | 15027 ft | 377 kts | 148° |
| 2026-05-04 18:52 | 51.65844 | -1.24353 | 15027 ft | 377 kts | 148° |
| 2026-05-04 18:52 | 51.63636 | -1.22056 | 15025 ft | 377 kts | 148° |
| 2026-05-04 18:53 | 51.61433 | -1.19769 | 15026 ft | 376 kts | 148° |
| 2026-05-04 18:53 | 51.59232 | -1.17493 | 15026 ft | 376 kts | 148° |
| 2026-05-04 18:53 | 51.57030 | -1.15218 | 15028 ft | 377 kts | 148° |
| 2026-05-04 18:53 | 51.54830 | -1.12942 | 15028 ft | 376 kts | 148° |
| 2026-05-04 18:54 | 51.52628 | -1.10664 | 15027 ft | 376 kts | 148° |
| 2026-05-04 18:54 | 51.50428 | -1.08391 | 15026 ft | 376 kts | 148° |
| 2026-05-04 18:54 | 51.48223 | -1.06121 | 15027 ft | 376 kts | 148° |
| 2026-05-04 18:54 | 51.46018 | -1.03856 | 15026 ft | 376 kts | 148° |
| 2026-05-04 18:55 | 51.43816 | -1.01594 | 15025 ft | 377 kts | 148° |
| 2026-05-04 18:55 | 51.39402 | -0.97062 | 15027 ft | 376 kts | 148° |
| 2026-05-04 18:55 | 51.37197 | -0.94805 | 15023 ft | 376 kts | 148° |
| 2026-05-04 18:56 | 51.34995 | -0.92552 | 15025 ft | 376 kts | 148° |
| 2026-05-04 18:56 | 51.32787 | -0.90295 | 15027 ft | 376 kts | 148° |
| 2026-05-04 18:56 | 51.30589 | -0.88053 | 15025 ft | 376 kts | 148° |
| 2026-05-04 18:56 | 51.28384 | -0.85803 | 15026 ft | 376 kts | 148° |
| 2026-05-04 18:57 | 51.26182 | -0.83555 | 15026 ft | 376 kts | 147° |
| 2026-05-04 18:57 | 51.23975 | -0.81306 | 15026 ft | 376 kts | 147° |
| 2026-05-04 18:57 | 51.21765 | -0.79058 | 15026 ft | 376 kts | 147° |
| 2026-05-04 18:57 | 51.19588 | -0.76843 | 15028 ft | 376 kts | 147° |
| 2026-05-04 18:58 | 51.17404 | -0.74626 | 15028 ft | 362 kts | 148° |
| 2026-05-04 18:58 | 51.15326 | -0.72525 | 14958 ft | 344 kts | 148° |
| 2026-05-04 18:58 | 51.13376 | -0.70557 | 14827 ft | 319 kts | 148° |
| 2026-05-04 18:58 | 51.11567 | -0.68730 | 14702 ft | 297 kts | 148° |
| 2026-05-04 18:59 | 51.09881 | -0.67029 | 14560 ft | 278 kts | 148° |
| 2026-05-04 18:59 | 51.08275 | -0.65408 | 14198 ft | 270 kts | 148° |
| 2026-05-04 18:59 | 51.06787 | -0.63878 | 13741 ft | 267 kts | 143° |
| 2026-05-04 18:59 | 51.05450 | -0.61912 | 13235 ft | 265 kts | 129° |
| 2026-05-04 19:00 | 51.04441 | -0.59480 | 12706 ft | 264 kts | 116° |
| 2026-05-04 19:00 | 51.03635 | -0.56863 | 12170 ft | 263 kts | 116° |
| 2026-05-04 19:00 | 51.02825 | -0.54266 | 11630 ft | 262 kts | 117° |
| 2026-05-04 19:00 | 51.02016 | -0.51685 | 11099 ft | 261 kts | 116° |
| 2026-05-04 19:01 | 51.01207 | -0.49110 | 10566 ft | 260 kts | 116° |
| 2026-05-04 19:01 | 51.00403 | -0.46559 | 10042 ft | 257 kts | 116° |
| 2026-05-04 19:01 | 50.99605 | -0.44024 | 9496 ft | 255 kts | 116° |
| 2026-05-04 19:01 | 50.98815 | -0.41511 | 8955 ft | 254 kts | 116° |
| 2026-05-04 19:02 | 50.98030 | -0.39011 | 8411 ft | 251 kts | 116° |
| 2026-05-04 19:02 | 50.97251 | -0.36543 | 8065 ft | 249 kts | 116° |
| 2026-05-04 19:02 | 50.96475 | -0.34084 | 8001 ft | 249 kts | 116° |
| 2026-05-04 19:02 | 50.95696 | -0.31620 | 8006 ft | 251 kts | 116° |
| 2026-05-04 19:03 | 50.94917 | -0.29151 | 7999 ft | 250 kts | 116° |
| 2026-05-04 19:03 | 50.94148 | -0.26724 | 7711 ft | 248 kts | 116° |
| 2026-05-04 19:03 | 50.93372 | -0.24274 | 7361 ft | 248 kts | 116° |
| 2026-05-04 19:03 | 50.92597 | -0.21840 | 7052 ft | 245 kts | 116° |
| 2026-05-04 19:04 | 50.91828 | -0.19427 | 7000 ft | 245 kts | 116° |
| 2026-05-04 19:04 | 50.91093 | -0.16986 | 7003 ft | 245 kts | 107° |
| 2026-05-04 19:04 | 50.90981 | -0.14362 | 7002 ft | 243 kts | 76° |
| 2026-05-04 19:04 | 50.91743 | -0.12022 | 6985 ft | 241 kts | 45° |
| 2026-05-04 19:05 | 50.93128 | -0.10633 | 6657 ft | 237 kts | 14° |
| 2026-05-04 19:05 | 50.94751 | -0.10616 | 6270 ft | 236 kts | 342° |
| 2026-05-04 19:05 | 50.96121 | -0.11977 | 5898 ft | 235 kts | 310° |
| 2026-05-04 19:05 | 50.96826 | -0.14282 | 5522 ft | 236 kts | 282° |
| 2026-05-04 19:06 | 50.97069 | -0.16861 | 5128 ft | 237 kts | 277° |
| 2026-05-04 19:06 | 50.97231 | -0.19467 | 4762 ft | 237 kts | 276° |
| 2026-05-04 19:06 | 50.97377 | -0.22072 | 4417 ft | 237 kts | 276° |
| 2026-05-04 19:06 | 50.97515 | -0.24666 | 4091 ft | 235 kts | 276° |
| 2026-05-04 19:07 | 50.97649 | -0.27239 | 4005 ft | 234 kts | 276° |
| 2026-05-04 19:07 | 50.97779 | -0.29831 | 4016 ft | 236 kts | 276° |
| 2026-05-04 19:07 | 50.97908 | -0.32432 | 4017 ft | 237 kts | 276° |
| 2026-05-04 19:07 | 50.98037 | -0.35036 | 4016 ft | 237 kts | 276° |
| 2026-05-04 19:08 | 50.98163 | -0.37631 | 3955 ft | 235 kts | 276° |
| 2026-05-04 19:08 | 50.98289 | -0.40208 | 3603 ft | 234 kts | 276° |
| 2026-05-04 19:08 | 50.98412 | -0.42791 | 3253 ft | 235 kts | 276° |
| 2026-05-04 19:08 | 50.98531 | -0.45351 | 3035 ft | 227 kts | 278° |
| 2026-05-04 19:09 | 50.99006 | -0.47595 | 3008 ft | 205 kts | 311° |
| 2026-05-04 19:09 | 50.99995 | -0.49105 | 3021 ft | 191 kts | 324° |
| 2026-05-04 19:09 | 51.01037 | -0.50369 | 3006 ft | 187 kts | 326° |
| 2026-05-04 19:09 | 51.02084 | -0.51601 | 3022 ft | 187 kts | 326° |
| 2026-05-04 19:10 | 51.03199 | -0.52565 | 2991 ft | 181 kts | 353° |
| 2026-05-04 19:10 | 51.04446 | -0.52377 | 3025 ft | 181 kts | 17° |
| 2026-05-04 19:10 | 51.05639 | -0.51754 | 3012 ft | 181 kts | 20° |
| 2026-05-04 19:10 | 51.06788 | -0.50971 | 2998 ft | 180 kts | 33° |
| 2026-05-04 19:11 | 51.07785 | -0.49765 | 3015 ft | 181 kts | 40° |
| 2026-05-04 19:11 | 51.08733 | -0.48461 | 3012 ft | 180 kts | 41° |
| 2026-05-04 19:11 | 51.09672 | -0.47141 | 3017 ft | 180 kts | 41° |
| 2026-05-04 19:11 | 51.10606 | -0.45813 | 3049 ft | 180 kts | 44° |
| 2026-05-04 19:12 | 51.11282 | -0.44184 | 3005 ft | 181 kts | 68° |
| 2026-05-04 19:12 | 51.11844 | -0.40377 | 2654 ft | 167 kts | 76° |
| 2026-05-04 19:12 | 51.12092 | -0.38598 | 2455 ft | 162 kts | 76° |
| 2026-05-04 19:13 | 51.12335 | -0.36859 | 2239 ft | 160 kts | 76° |
| 2026-05-04 19:13 | 51.12576 | -0.35135 | 2032 ft | 159 kts | 76° |
| 2026-05-04 19:13 | 51.12816 | -0.33415 | 1822 ft | 159 kts | 76° |
| 2026-05-04 19:13 | 51.13055 | -0.31703 | 1611 ft | 158 kts | 77° |
| 2026-05-04 19:14 | 51.13290 | -0.30011 | 1401 ft | 152 kts | 77° |
| 2026-05-04 19:14 | 51.13507 | -0.28451 | 1220 ft | 138 kts | 77° |
| 2026-05-04 19:14 | 51.13711 | -0.26992 | 1021 ft | 133 kts | 77° |
| 2026-05-04 19:14 | 51.13911 | -0.25567 | 847 ft | 131 kts | 77° |
| 2026-05-04 19:15 | 51.14105 | -0.24162 | 683 ft | 130 kts | 76° |
| 2026-05-04 19:15 | 51.14302 | -0.22750 | 519 ft | 131 kts | 76° |
| 2026-05-04 19:15 | 51.14497 | -0.21341 | 326 ft | 130 kts | 76° |
| 2026-05-04 19:15 | 51.14690 | -0.19946 | 212 ft | 123 kts | 77° |
| 2026-05-04 19:16 | 51.14841 | -0.18838 | 206 ft | 78 kts | 77° |
| 2026-05-04 19:16 | 51.14903 | -0.18391 | 212 ft | 49 kts | 78° |
| 2026-05-04 19:16 | 51.14977 | -0.17975 | 211 ft | 25 kts | 63° |
| 2026-05-04 19:16 | 51.15055 | -0.17795 | 215 ft | 16 kts | 50° |
| 2026-05-04 19:17 | 51.15132 | -0.17758 | 205 ft | 12 kts | 351° |
| 2026-05-04 19:17 | 51.15187 | -0.17769 | 205 ft | 0 kts | 353° |
| 2026-05-04 19:26 | 51.15187 | -0.17770 | 205 ft | 1 kts | 353° |
| 2026-05-04 19:26 | 51.15215 | -0.17775 | 205 ft | 8 kts | 353° |
| 2026-05-04 19:26 | 51.15265 | -0.17703 | 206 ft | 14 kts | 81° |
| 2026-05-04 19:27 | 51.15288 | -0.17536 | 212 ft | 13 kts | 77° |
| 2026-05-04 19:27 | 51.15302 | -0.17418 | 204 ft | 9 kts | 77° |
| 2026-05-04 19:27 | 51.15341 | -0.17367 | 213 ft | 7 kts | 3° |
| 2026-05-04 19:27 | 51.15386 | -0.17382 | 204 ft | 6 kts | 348° |
| 2026-05-04 19:28 | 51.15425 | -0.17395 | 210 ft | 5 kts | 348° |
| 2026-05-04 19:28 | 51.15467 | -0.17409 | 208 ft | 9 kts | 348° |
| 2026-05-04 19:28 | 51.15522 | -0.17428 | 215 ft | 8 kts | 346° |
| 2026-05-04 19:28 | 51.15602 | -0.17457 | 209 ft | 16 kts | 347° |
| 2026-05-04 19:29 | 51.15712 | -0.17494 | 204 ft | 11 kts | 348° |
| 2026-05-04 19:29 | 51.15751 | -0.17575 | 208 ft | 10 kts | 265° |
| 2026-05-04 19:29 | 51.15741 | -0.17659 | 204 ft | 9 kts | 257° |
| 2026-05-04 19:29 | 51.15737 | -0.17683 | 204 ft | 9 kts | 257° |
| 2026-05-04 19:30 | 51.15725 | -0.17773 | 213 ft | 8 kts | 258° |
| 2026-05-04 19:30 | 51.15715 | -0.17852 | 207 ft | 5 kts | 268° |
| 2026-05-04 19:30 | 51.15737 | -0.17869 | 212 ft | 3 kts | 349° |
| 2026-05-04 19:30 | 51.15756 | -0.17875 | 204 ft | 2 kts | 348° |
| 2026-05-04 19:31 | 51.15775 | -0.17882 | 204 ft | 3 kts | 347° |
| 2026-05-04 19:31 | 51.15780 | -0.17884 | 204 ft | 0 kts | 347° |
| 2026-05-04 19:31 | 51.15781 | -0.17884 | 209 ft | 0 kts | 347° |